Time;durP1;ratioP1;P1;durP2;ratioP2;P2;SDS_P1;SDS_P2;PMS_P1;PMS_P2;Temp;Humidity;BMP_temperature;BMP_pressure;BME280_temperature;BME280_humidity;BME280_pressure;Samples;Min_cycle;Max_cycle;Signal;HPM_P1;HPM_P2
2021/07/27 00:00:19;;;;;;;4.97;4.20;;;;;;;20.12;69.70;99881.44;5053914;28;20049;-69
2021/07/27 00:02:47;;;;;;;7.25;5.38;;;;;;;19.95;70.68;99891.41;5034896;28;20426;-69
2021/07/27 00:05:16;;;;;;;6.82;4.93;;;;;;;20.08;70.15;99887.06;5034867;28;20054;-71
2021/07/27 00:07:43;;;;;;;14.43;5.72;;;;;;;20.14;69.70;99879.84;5035140;28;20053;-71
2021/07/27 00:10:11;;;;;;;7.43;5.30;;;;;;;20.05;70.19;99879.34;5034555;28;20064;-71
2021/07/27 00:12:39;;;;;;;6.13;5.10;;;;;;;20.01;70.46;99875.69;5034548;28;20060;-71
2021/07/27 00:15:07;;;;;;;6.35;5.30;;;;;;;20.11;70.09;99883.44;5033677;28;20414;-71
2021/07/27 00:17:35;;;;;;;6.63;5.80;;;;;;;19.96;70.69;99881.72;5049095;28;20057;-71
2021/07/27 00:20:02;;;;;;;8.57;5.43;;;;;;;20.07;70.31;99888.25;5053564;28;20057;-71
2021/07/27 00:22:31;;;;;;;6.43;5.45;;;;;;;20.13;70.24;99880.22;5053349;28;20056;-71
2021/07/27 00:24:59;;;;;;;7.05;5.40;;;;;;;20.12;70.07;99882.25;5053746;28;20049;-71
2021/07/27 00:27:27;;;;;;;6.15;5.35;;;;;;;20.15;70.06;99877.81;5053849;28;20057;-71
2021/07/27 00:29:54;;;;;;;6.85;5.32;;;;;;;20.00;70.80;99882.56;5053964;28;20060;-71
2021/07/27 00:32:22;;;;;;;6.15;5.10;;;;;;;20.07;70.59;99874.13;5054133;28;20049;-71
2021/07/27 00:34:54;;;;;;;6.65;5.38;;;;;;;19.83;71.38;99882.03;5053798;28;20391;-71
2021/07/27 00:37:28;;;;;;;8.02;6.60;;;;;;;20.02;70.43;99886.63;5054279;28;20382;-71
2021/07/27 00:39:57;;;;;;;6.82;5.55;;;;;;;20.12;70.75;99876.59;5053338;28;20049;-71
2021/07/27 00:42:24;;;;;;;8.68;5.95;;;;;;;20.00;70.91;99876.91;5053473;28;20053;-71
2021/07/27 00:44:52;;;;;;;8.63;6.00;;;;;;;20.09;70.61;99880.19;5053935;28;20053;-70
2021/07/27 00:47:19;;;;;;;7.55;6.20;;;;;;;20.07;70.64;99874.13;5053978;28;20048;-71
2021/07/27 00:49:47;;;;;;;7.60;6.10;;;;;;;20.16;70.41;99877.44;5054013;28;20060;-71
2021/07/27 00:52:15;;;;;;;6.70;5.90;;;;;;;19.89;71.62;99885.31;5053557;28;20057;-71
2021/07/27 00:54:43;;;;;;;6.68;4.78;;;;;;;20.06;71.04;99870.50;5052944;28;20049;-71
2021/07/27 00:57:12;;;;;;;7.90;5.20;;;;;;;19.95;71.18;99877.25;5054002;28;20049;-70
2021/07/27 00:59:40;;;;;;;6.10;5.25;;;;;;;19.94;71.15;99881.31;5053486;28;20498;-71
2021/07/27 01:02:08;;;;;;;5.57;5.05;;;;;;;20.11;70.38;99876.97;5053949;28;20045;-71
2021/07/27 01:04:35;;;;;;;8.07;5.30;;;;;;;20.15;70.34;99881.44;5053376;28;20057;-71
2021/07/27 01:07:03;;;;;;;6.53;4.72;;;;;;;20.13;70.47;99877.41;5053650;28;20410;-71
2021/07/27 01:09:30;;;;;;;6.00;4.72;;;;;;;20.03;70.70;99882.59;5052600;28;20049;-71
2021/07/27 01:12:00;;;;;;;6.35;5.45;;;;;;;19.99;70.92;99870.44;5054012;28;20056;-71
2021/07/27 01:14:29;;;;;;;7.78;5.68;;;;;;;20.13;70.27;99883.06;5053362;28;20053;-71
2021/07/27 01:16:59;;;;;;;7.07;5.05;;;;;;;20.07;70.56;99885.44;5053223;28;20056;-71
2021/07/27 01:19:39;;;;;;;5.80;5.18;;;;;;;19.90;71.08;99880.47;5053265;28;20506;-71
2021/07/27 01:39:17;;;;;;;10.70;8.38;;;;;;;19.61;75.55;99877.38;5058250;28;20076;-69
2021/07/27 01:44:32;;;;;;;12.05;9.23;;;;;;;19.64;75.39;99882.25;5046423;28;20398;-68
2021/07/27 01:46:59;;;;;;;11.23;9.32;;;;;;;19.71;75.11;99875.88;5048704;28;20371;-68
2021/07/27 01:49:27;;;;;;;12.63;9.18;;;;;;;19.81;75.09;99883.63;5052747;28;20064;-68
2021/07/27 01:51:54;;;;;;;12.88;9.35;;;;;;;19.80;75.32;99884.81;5053157;28;20049;-70
2021/07/27 01:54:30;;;;;;;11.70;9.02;;;;;;;19.57;75.08;99880.19;5052426;28;20053;-69
2021/07/27 01:56:58;;;;;;;10.60;8.27;;;;;;;19.64;74.84;99882.25;5051912;28;20053;-68
2021/07/27 01:59:26;;;;;;;10.48;8.73;;;;;;;19.58;75.20;99876.16;5032221;28;20438;-68
2021/07/27 02:01:53;;;;;;;10.82;9.00;;;;;;;19.70;74.32;99883.56;5048203;28;20048;-68
2021/07/27 02:04:20;;;;;;;11.02;9.63;;;;;;;19.67;74.33;99879.47;5052601;28;20059;-68
2021/07/27 02:06:48;;;;;;;10.82;9.05;;;;;;;19.73;74.47;99879.94;5053241;28;20048;-68
2021/07/27 02:09:15;;;;;;;10.73;9.38;;;;;;;19.62;74.68;99871.34;5052663;28;20091;-68
2021/07/27 02:11:49;;;;;;;11.88;10.07;;;;;;;19.56;75.33;99869.28;5052253;28;20052;-69
2021/07/27 02:14:17;;;;;;;10.65;9.55;;;;;;;19.58;75.26;99875.34;5052233;28;20478;-68
2021/07/27 02:16:44;;;;;;;11.50;9.48;;;;;;;19.62;74.79;99877.00;5052308;28;20049;-68
2021/07/27 02:19:12;;;;;;;11.10;9.52;;;;;;;19.72;74.33;99874.66;5052743;28;20049;-68
2021/07/27 02:21:39;;;;;;;10.85;9.63;;;;;;;19.70;74.30;99877.03;5052494;28;20388;-68
2021/07/27 02:24:07;;;;;;;12.05;9.27;;;;;;;19.80;73.47;99877.19;5051930;28;20044;-68
2021/07/27 02:26:34;;;;;;;11.20;9.30;;;;;;;19.78;73.69;99875.94;5052478;28;20049;-68
2021/07/27 02:29:03;;;;;;;10.35;9.25;;;;;;;19.74;73.88;99875.91;5052447;28;20522;-68
2021/07/27 02:31:36;;;;;;;10.82;9.75;;;;;;;19.79;73.78;99875.53;5052392;28;20056;-68
2021/07/27 02:34:03;;;;;;;10.05;9.05;;;;;;;19.88;73.63;99878.03;5052278;28;20074;-69
2021/07/27 02:36:31;;;;;;;10.90;9.90;;;;;;;19.84;73.79;99878.03;5052023;28;20053;-69
2021/07/27 02:38:58;;;;;;;11.05;9.95;;;;;;;19.97;73.26;99869.19;5054903;28;20055;-69
2021/07/27 02:41:38;;;;;;;11.93;10.77;;;;;;;19.85;73.54;99870.34;5056466;28;20048;-69
2021/07/27 02:44:06;;;;;;;;;;;;;;;19.84;72.79;99872.38;5056981;28;20056;-69
2021/07/27 02:46:34;;;;;;;12.87;11.57;;;;;;;19.90;72.93;99883.28;5046306;28;20420;-69
2021/07/27 02:49:02;;;;;;;12.30;10.90;;;;;;;19.98;72.74;99882.16;5036367;28;20389;-69
2021/07/27 02:51:31;;;;;;;13.00;11.70;;;;;;;20.00;72.51;99882.56;5036513;28;20064;-69
2021/07/27 02:53:58;;;;;;;13.27;11.88;;;;;;;19.87;73.23;99882.06;5046522;28;20057;-69
2021/07/27 02:56:27;;;;;;;14.45;11.57;;;;;;;19.93;72.92;99882.50;5056390;28;20045;-69
2021/07/27 02:58:54;;;;;;;13.73;12.27;;;;;;;19.89;73.48;99879.66;5055844;28;20048;-69
2021/07/27 03:01:23;;;;;;;13.38;11.95;;;;;;;19.84;73.17;99889.31;5055746;28;20082;-69
2021/07/27 03:03:50;;;;;;;13.63;12.30;;;;;;;19.66;73.67;99889.13;5055759;28;20501;-69
2021/07/27 03:06:19;;;;;;;14.05;12.65;;;;;;;19.63;73.85;99889.09;5055811;28;20398;-69
2021/07/27 03:09:02;;;;;;;14.25;12.75;;;;;;;19.65;73.84;99881.03;5055053;28;20060;-69
2021/07/27 03:11:30;;;;;;;15.38;13.77;;;;;;;19.62;73.84;99874.16;5055845;28;20057;-69
2021/07/27 03:13:57;;;;;;;16.80;14.48;;;;;;;19.55;74.02;99876.94;5055700;28;20060;-69
2021/07/27 03:16:27;;;;;;;16.10;14.55;;;;;;;19.56;73.89;99881.38;5055904;28;20053;-69
2021/07/27 03:18:56;;;;;;;;;;;;;;;19.30;74.58;99882.34;5056228;28;20045;-69
2021/07/27 03:21:26;;;;;;;16.20;14.60;;;;;;;19.41;74.25;99886.09;5055413;28;19920;-69
2021/07/27 03:23:54;;;;;;;16.73;15.02;;;;;;;19.32;74.58;99885.59;5054757;28;20099;-69
2021/07/27 03:26:23;;;;;;;16.02;14.23;;;;;;;19.36;74.09;99889.28;5055529;28;20049;-69
2021/07/27 03:28:51;;;;;;;16.52;14.75;;;;;;;19.28;74.28;99884.75;5055397;28;20060;-69
2021/07/27 03:31:18;;;;;;;17.00;15.20;;;;;;;19.30;74.29;99879.53;5055581;28;20052;-69
2021/07/27 03:33:47;;;;;;;18.13;16.23;;;;;;;19.23;74.13;99882.28;5044368;28;20402;-70
2021/07/27 03:36:14;;;;;;;19.05;17.00;;;;;;;19.04;75.08;99888.94;5052334;28;20532;-70
2021/07/27 03:38:42;;;;;;;19.10;16.70;;;;;;;19.18;74.55;99882.63;5054420;28;20402;-70
2021/07/27 03:41:13;;;;;;;19.90;17.42;;;;;;;19.14;74.35;99876.94;5054881;28;20394;-70
2021/07/27 03:43:41;;;;;;;20.60;17.35;;;;;;;19.09;74.50;99879.28;5055167;28;20067;-70
2021/07/27 03:46:08;;;;;;;19.98;17.88;;;;;;;18.84;75.66;99883.47;5055127;28;20053;-70
2021/07/27 03:48:36;;;;;;;22.75;18.70;;;;;;;19.01;74.72;99876.41;5046587;28;20065;-70
2021/07/27 03:51:05;;;;;;;23.38;19.73;;;;;;;18.85;75.17;99885.06;5034828;28;20057;-70
2021/07/27 03:53:32;;;;;;;23.00;19.42;;;;;;;18.87;75.03;99873.41;5034906;28;20509;-70
2021/07/27 03:56:00;;;;;;;24.33;19.50;;;;;;;18.93;74.75;99886.00;5051051;28;20056;-70
2021/07/27 03:58:30;;;;;;;24.08;19.20;;;;;;;18.97;74.46;99880.38;5055240;28;20053;-70
2021/07/27 04:00:57;;;;;;;23.92;18.75;;;;;;;18.83;75.13;99889.50;5054922;28;20056;-70
2021/07/27 04:03:25;;;;;;;21.02;17.77;;;;;;;18.84;75.34;99874.19;5054694;28;20053;-70
2021/07/27 04:05:52;;;;;;;22.25;18.30;;;;;;;18.93;74.82;99880.34;5054419;28;20064;-70
2021/07/27 04:08:21;;;;;;;23.35;18.67;;;;;;;18.98;74.73;99880.00;5054793;28;20127;-70
2021/07/27 04:10:49;;;;;;;21.00;18.23;;;;;;;19.02;74.49;99888.50;5053437;28;20053;-70
2021/07/27 04:13:16;;;;;;;21.92;18.00;;;;;;;18.97;75.10;99891.69;5054539;28;20064;-70
2021/07/27 04:15:44;;;;;;;21.67;18.20;;;;;;;18.99;74.62;99884.44;5053931;28;20064;-70
2021/07/27 04:18:11;;;;;;;21.17;18.80;;;;;;;19.01;74.78;99893.34;5054699;28;20512;-70
2021/07/27 04:20:38;;;;;;;20.30;18.05;;;;;;;18.97;75.02;99884.03;5054172;28;20056;-70
2021/07/27 04:23:06;;;;;;;21.52;18.27;;;;;;;19.01;74.83;99887.69;5054571;28;20049;-70
2021/07/27 04:25:35;;;;;;;20.52;17.60;;;;;;;19.14;74.35;99884.59;5053603;28;20064;-70
2021/07/27 04:28:02;;;;;;;21.38;18.88;;;;;;;19.00;75.03;99894.56;5054645;28;20486;-70
2021/07/27 04:30:29;;;;;;;21.88;18.35;;;;;;;19.23;73.78;99896.38;5054684;28;20409;-70
2021/07/27 04:32:57;;;;;;;23.35;19.45;;;;;;;19.27;73.70;99894.41;5054497;28;20053;-70
2021/07/27 04:35:24;;;;;;;21.63;18.02;;;;;;;19.30;73.86;99895.66;5053796;28;20075;-70
2021/07/27 04:37:52;;;;;;;22.08;18.13;;;;;;;19.46;73.06;99911.16;5053857;28;20064;-70
2021/07/27 04:40:21;;;;;;;20.20;17.02;;;;;;;19.48;73.10;99911.56;5053351;28;20052;-70
2021/07/27 04:42:50;;;;;;;18.27;16.02;;;;;;;19.54;72.81;99916.88;5053962;28;20417;-70
2021/07/27 04:45:18;;;;;;;19.85;16.63;;;;;;;19.63;72.65;99908.88;5054019;28;20049;-70
2021/07/27 04:47:45;;;;;;;21.55;17.23;;;;;;;19.54;73.22;99916.88;5053931;28;20052;-70
2021/07/27 04:50:15;;;;;;;19.00;16.63;;;;;;;19.65;72.84;99914.94;5052798;28;20056;-70
2021/07/27 04:52:49;;;;;;;;;;;;;;;19.44;73.12;99909.91;5034272;28;20053;-70
2021/07/27 04:55:17;;;;;;;17.77;15.88;;;;;;;19.72;72.79;99912.22;5052936;28;19928;-70
2021/07/27 04:57:44;;;;;;;18.20;16.23;;;;;;;19.68;73.19;99919.84;5053588;28;20053;-69
2021/07/27 05:00:19;;;;;;;20.27;16.65;;;;;;;19.85;72.30;99913.53;5052941;28;20045;-69
2021/07/27 05:02:46;;;;;;;23.25;18.20;;;;;;;19.94;72.14;99907.56;5053452;28;20060;-69
2021/07/27 05:05:14;;;;;;;20.63;17.60;;;;;;;20.07;71.54;99900.41;5053560;28;20045;-69
2021/07/27 05:07:42;;;;;;;20.52;18.33;;;;;;;20.25;71.22;99916.66;5052773;28;20057;-70
2021/07/27 05:10:10;;;;;;;19.20;17.17;;;;;;;20.36;70.73;99909.03;5053470;28;20045;-69
2021/07/27 05:12:38;;;;;;;21.70;19.17;;;;;;;20.53;70.17;99903.88;5040898;28;20053;-70
2021/07/27 05:15:06;;;;;;;20.60;18.27;;;;;;;20.61;70.02;99909.22;5046478;28;20041;-70
2021/07/27 05:17:35;;;;;;;21.53;18.80;;;;;;;20.80;69.42;99908.09;5050323;28;20406;-70
2021/07/27 05:20:04;;;;;;;24.90;20.65;;;;;;;20.77;69.00;99910.91;5042784;28;20049;-71
2021/07/27 05:22:32;;;;;;;24.00;21.17;;;;;;;20.84;68.49;99911.75;5050935;28;20387;-69
2021/07/27 05:24:59;;;;;;;23.70;21.15;;;;;;;21.14;68.01;99904.16;5046809;28;20052;-69
2021/07/27 05:27:28;;;;;;;25.42;22.67;;;;;;;21.25;67.14;99907.81;5050640;28;20059;-70
2021/07/27 05:29:56;;;;;;;27.85;23.42;;;;;;;21.32;66.55;99902.19;5049130;28;20048;-70
2021/07/27 05:32:24;;;;;;;27.13;22.92;;;;;;;21.45;66.17;99903.44;5053666;28;20053;-70
2021/07/27 05:34:53;;;;;;;26.33;22.60;;;;;;;21.64;65.23;99919.25;5052694;28;20061;-69
2021/07/27 05:37:21;;;;;;;27.42;23.23;;;;;;;21.34;66.23;99916.75;5053581;28;20471;-70
2021/07/27 05:39:51;;;;;;;27.52;22.73;;;;;;;21.49;65.67;99912.75;5053164;28;20073;-70
2021/07/27 05:42:18;;;;;;;26.13;22.42;;;;;;;21.44;65.81;99918.00;5047798;28;20052;-70
2021/07/27 05:44:46;;;;;;;28.77;23.42;;;;;;;21.47;65.62;99912.34;5050626;28;20363;-70
2021/07/27 05:47:14;;;;;;;28.00;23.48;;;;;;;21.27;66.22;99908.22;5049698;28;20053;-70
2021/07/27 05:49:41;;;;;;;27.95;23.77;;;;;;;21.42;65.37;99907.09;5049099;28;20064;-49
2021/07/27 05:52:12;;;;;;;27.05;21.95;;;;;;;21.06;67.05;99912.66;5051662;28;20371;-51
2021/07/27 05:54:40;;;;;;;29.63;24.55;;;;;;;20.52;69.04;99916.44;5052784;28;20409;-50
2021/07/27 05:57:11;;;;;;;30.10;23.83;;;;;;;20.53;68.33;99930.16;5038879;28;20060;-50
2021/07/27 05:59:38;;;;;;;30.38;25.45;;;;;;;20.43;69.40;99925.25;5043260;28;20055;-52
2021/07/27 06:02:06;;;;;;;29.50;24.52;;;;;;;20.39;69.10;99924.41;5039707;28;20056;-52
2021/07/27 06:04:33;;;;;;;30.70;24.58;;;;;;;20.29;69.93;99931.66;5033021;28;20065;-51
2021/07/27 06:07:02;;;;;;;30.02;24.98;;;;;;;20.35;69.61;99930.06;5046653;28;20059;-49
2021/07/27 06:09:30;;;;;;;31.38;26.05;;;;;;;19.57;72.06;99925.38;5052630;28;20048;-50
2021/07/27 06:11:58;;;;;;;28.35;24.48;;;;;;;19.82;71.85;99920.00;5051971;28;20055;-50
2021/07/27 06:14:25;;;;;;;31.23;24.88;;;;;;;20.54;69.06;99917.66;5052504;28;20482;-48
2021/07/27 06:16:52;;;;;;;30.88;24.58;;;;;;;20.06;70.58;99917.75;5050317;28;20060;-50
2021/07/27 06:19:20;;;;;;;26.92;22.85;;;;;;;20.45;69.77;99911.53;5052387;28;20053;-49
2021/07/27 06:21:47;;;;;;;25.20;22.08;;;;;;;20.27;70.10;99922.75;5052260;28;20406;-48
2021/07/27 06:24:16;;;;;;;25.88;21.98;;;;;;;20.45;69.22;99915.19;5051552;28;20045;-50
2021/07/27 06:26:45;;;;;;;24.55;19.92;;;;;;;20.65;67.91;99915.69;5051690;28;20057;-50
2021/07/27 06:29:13;;;;;;;24.25;20.15;;;;;;;20.43;69.12;99913.94;5052645;28;20413;-48
2021/07/27 06:31:40;;;;;;;22.63;18.98;;;;;;;21.21;66.33;99907.03;5051587;28;20064;-71
2021/07/27 06:34:07;;;;;;;22.17;18.85;;;;;;;21.58;64.75;99912.34;5052981;28;20053;-70
2021/07/27 06:36:35;;;;;;;19.40;17.35;;;;;;;21.76;63.63;99911.56;5038313;28;20061;-70
2021/07/27 06:39:02;;;;;;;19.48;17.48;;;;;;;22.07;63.21;99916.44;5032698;28;20509;-71
2021/07/27 06:41:29;;;;;;;19.17;16.27;;;;;;;22.06;62.81;99919.66;5045874;28;20056;-71
2021/07/27 06:43:58;;;;;;;17.92;16.13;;;;;;;22.42;61.51;99911.91;5051489;28;20056;-71
2021/07/27 06:46:28;;;;;;;17.65;14.48;;;;;;;22.57;60.96;99898.50;5032779;28;20530;-71
2021/07/27 06:48:56;;;;;;;15.40;13.80;;;;;;;22.55;60.71;99902.97;5032342;28;20057;-70
2021/07/27 06:51:23;;;;;;;15.80;14.10;;;;;;;22.63;60.29;99910.25;5045805;28;20394;-70
2021/07/27 06:53:53;;;;;;;15.32;13.73;;;;;;;22.43;60.57;99918.44;5047262;28;20065;-70
2021/07/27 06:56:23;;;;;;;16.58;13.60;;;;;;;22.28;60.31;99926.97;5048087;28;20060;-70
2021/07/27 06:58:51;;;;;;;14.13;12.70;;;;;;;22.19;61.25;99917.22;5049233;28;20433;-70
2021/07/27 07:01:20;;;;;;;13.95;11.32;;;;;;;22.84;59.75;99910.16;5049095;28;20060;-70
2021/07/27 07:03:47;;;;;;;12.13;10.93;;;;;;;23.08;58.91;99908.47;5042776;28;20064;-70
2021/07/27 07:06:16;;;;;;;13.05;10.63;;;;;;;23.48;57.26;99900.50;5047650;28;20063;-70
2021/07/27 07:08:43;;;;;;;12.82;11.20;;;;;;;23.29;57.02;99901.06;5044343;28;20053;-70
2021/07/27 07:11:11;;;;;;;14.10;11.68;;;;;;;23.85;56.21;99906.75;5042213;28;20058;-70
2021/07/27 07:13:39;;;;;;;11.93;10.63;;;;;;;23.92;55.62;99903.84;5048959;28;20521;-70
2021/07/27 07:16:09;;;;;;;12.95;10.27;;;;;;;23.98;55.22;99907.88;5044015;28;20056;-70
2021/07/27 07:18:38;;;;;;;11.55;10.05;;;;;;;23.79;55.37;99906.41;5038151;28;20489;-70
2021/07/27 07:21:07;;;;;;;11.25;9.75;;;;;;;23.93;54.72;99907.50;5049308;28;20060;-70
2021/07/27 07:23:35;;;;;;;11.93;10.00;;;;;;;23.28;55.98;99891.69;5046109;28;20060;-70
2021/07/27 07:26:05;;;;;;;10.10;8.68;;;;;;;23.74;55.74;99891.78;5046928;28;20048;-70
2021/07/27 07:28:33;;;;;;;10.07;8.95;;;;;;;23.80;55.86;99896.63;5049633;28;20056;-71
2021/07/27 07:31:01;;;;;;;10.68;8.57;;;;;;;23.85;55.36;99893.31;5049074;28;20056;-70
2021/07/27 07:33:28;;;;;;;11.82;9.30;;;;;;;24.01;55.48;99911.91;5050320;28;20068;-70
2021/07/27 07:35:57;;;;;;;9.48;8.30;;;;;;;24.16;54.52;99907.69;5051305;28;20053;-70
2021/07/27 07:38:24;;;;;;;9.63;8.45;;;;;;;23.81;55.39;99898.25;5049666;28;20049;-70
2021/07/27 07:40:52;;;;;;;9.80;8.60;;;;;;;23.87;55.13;99902.25;5048069;28;20052;-70
2021/07/27 07:43:19;;;;;;;9.73;8.35;;;;;;;23.78;54.73;99904.78;5043279;28;20517;-70
2021/07/27 07:45:47;;;;;;;9.13;7.72;;;;;;;23.88;54.97;99918.09;5053027;28;20056;-70
2021/07/27 07:48:14;;;;;;;8.73;7.88;;;;;;;24.29;53.73;99920.16;5051874;28;20053;-70
2021/07/27 07:50:42;;;;;;;9.35;8.05;;;;;;;24.16;53.55;99912.56;5046365;28;20045;-70
2021/07/27 07:53:10;;;;;;;9.52;8.25;;;;;;;24.65;52.30;99911.28;5049566;28;20052;-70
2021/07/27 07:55:38;;;;;;;10.65;8.38;;;;;;;24.88;51.04;99901.22;5052116;28;20056;-70
2021/07/27 07:58:06;;;;;;;8.52;7.63;;;;;;;25.85;49.26;99899.81;5041405;28;20410;-70
2021/07/27 08:00:33;;;;;;;9.15;6.63;;;;;;;25.69;49.93;99900.50;5047639;28;20053;-70
2021/07/27 08:03:02;;;;;;;7.95;6.93;;;;;;;26.18;48.81;99895.19;5045284;28;20079;-70
2021/07/27 08:05:30;;;;;;;9.32;7.60;;;;;;;25.88;49.01;99901.81;5050469;28;20397;-70
2021/07/27 08:07:57;;;;;;;8.95;6.80;;;;;;;26.13;48.13;99898.53;5045197;28;20068;-70
2021/07/27 08:10:26;;;;;;;10.30;7.25;;;;;;;26.88;46.05;99907.75;5048082;28;20493;-71
2021/07/27 08:12:53;;;;;;;;;;;;;;;27.65;44.10;99908.47;5050969;28;20056;-70
2021/07/27 08:15:25;;;;;;;8.02;6.72;;;;;;;27.60;44.15;99903.28;5051136;28;19924;-71
2021/07/27 08:17:53;;;;;;;8.38;7.25;;;;;;;28.12;42.41;99897.50;5048498;28;20063;-71
2021/07/27 08:20:22;;;;;;;10.57;7.22;;;;;;;28.81;41.30;99902.16;5051307;28;20049;-71
2021/07/27 08:22:49;;;;;;;9.77;6.93;;;;;;;28.71;41.03;99904.09;5044362;28;20060;-71
2021/07/27 08:25:18;;;;;;;7.90;7.07;;;;;;;29.26;39.96;99909.03;5046725;28;20049;-71
2021/07/27 08:27:47;;;;;;;;;;;;;;;29.95;38.84;99903.53;5041350;28;20049;-71
2021/07/27 08:30:15;;;;;;;9.00;6.30;;;;;;;31.28;36.87;99904.47;5050472;28;20289;-71
2021/07/27 08:32:47;;;;;;;6.38;5.65;;;;;;;31.76;35.58;99907.91;5044891;28;20489;-71
2021/07/27 08:35:15;;;;;;;5.82;4.93;;;;;;;31.82;35.97;99908.06;5051088;28;20052;-71
2021/07/27 08:37:43;;;;;;;7.50;5.18;;;;;;;31.78;35.20;99907.44;5045023;28;20060;-71
2021/07/27 08:40:11;;;;;;;7.18;6.03;;;;;;;31.48;34.70;99891.81;5051829;28;20504;-71
2021/07/27 08:42:39;;;;;;;;;;;;;;;30.26;36.58;99896.31;5049481;28;20375;-71
2021/07/27 08:45:10;;;;;;;6.73;6.07;;;;;;;30.37;37.40;99898.88;5043529;28;19925;-71
2021/07/27 08:47:40;;;;;;;7.38;5.70;;;;;;;31.49;34.91;99896.28;5044391;28;20061;-71
2021/07/27 08:50:09;;;;;;;6.45;5.85;;;;;;;33.07;32.12;99884.47;5047143;28;20049;-71
2021/07/27 08:52:36;;;;;;;;;;;;;;;32.15;33.45;99896.81;5047504;28;20053;-71
2021/07/27 08:55:05;;;;;;;8.05;6.25;;;;;;;32.14;33.25;99889.44;5043552;28;19928;-71
2021/07/27 08:57:33;;;;;;;6.35;5.75;;;;;;;31.99;33.67;99887.66;5043192;28;20049;-71
2021/07/27 09:00:00;;;;;;;7.00;6.20;;;;;;;31.66;34.73;99888.97;5048780;28;20064;-70
2021/07/27 09:02:29;;;;;;;6.80;6.20;;;;;;;31.55;33.81;99883.66;5043315;28;20068;-70
2021/07/27 09:05:08;;;;;;;7.05;5.78;;;;;;;31.55;33.93;99895.19;5050256;28;20056;-70
2021/07/27 09:07:35;;;;;;;7.40;6.20;;;;;;;31.15;34.48;99889.38;5035852;28;20061;-70
2021/07/27 09:10:12;;;;;;;7.45;6.68;;;;;;;30.08;36.42;99906.38;5040651;28;20045;-70
2021/07/27 09:12:40;;;;;;;8.10;6.60;;;;;;;29.40;36.73;99908.59;5050201;28;20048;-70
2021/07/27 09:15:08;;;;;;;7.95;7.15;;;;;;;28.97;37.24;99895.53;5048678;28;20523;-70
2021/07/27 09:17:37;;;;;;;8.65;6.93;;;;;;;28.96;37.65;99893.94;5040998;28;20056;-70
2021/07/27 09:20:05;;;;;;;8.32;6.90;;;;;;;29.04;37.12;99901.06;5046898;28;20482;-70
2021/07/27 09:22:32;;;;;;;9.98;7.20;;;;;;;29.69;36.90;99890.44;5042883;28;20076;-70
2021/07/27 09:25:07;;;;;;;7.82;6.72;;;;;;;29.34;36.71;99887.47;5041808;28;20060;-70
2021/07/27 09:27:35;;;;;;;8.13;6.95;;;;;;;29.60;36.80;99896.88;5043931;28;20045;-70
2021/07/27 09:30:02;;;;;;;8.50;6.70;;;;;;;30.40;35.50;99880.69;5042829;28;20091;-70
2021/07/27 09:32:30;;;;;;;9.85;7.68;;;;;;;30.04;35.92;99894.22;5047558;28;20502;-70
2021/07/27 09:35:05;;;;;;;9.80;7.20;;;;;;;29.21;38.68;99898.94;5049554;28;20071;-70
2021/07/27 09:37:32;;;;;;;8.13;7.32;;;;;;;30.09;36.91;99892.81;5048750;28;20049;-70
2021/07/27 09:40:07;;;;;;;11.07;7.18;;;;;;;29.84;36.66;99891.63;5047696;28;20052;-70
2021/07/27 09:42:35;;;;;;;7.65;6.50;;;;;;;31.01;34.70;99892.81;5042681;28;20046;-70
2021/07/27 09:45:04;;;;;;;10.38;7.40;;;;;;;32.71;30.86;99885.31;5051004;28;20052;-70
2021/07/27 09:47:31;;;;;;;9.70;7.05;;;;;;;33.64;29.50;99875.16;5047991;28;20056;-70
2021/07/27 09:50:00;;;;;;;6.80;6.10;;;;;;;34.07;28.86;99880.81;5050040;28;20414;-70
2021/07/27 09:52:30;;;;;;;8.52;6.00;;;;;;;33.99;28.94;99894.84;5042315;28;20045;-70
2021/07/27 09:54:58;;;;;;;6.88;6.18;;;;;;;33.42;30.45;99900.56;5047378;28;20071;-71
2021/07/27 09:57:25;;;;;;;7.95;7.15;;;;;;;32.07;31.79;99897.63;5046798;28;20462;-70
2021/07/27 09:59:54;;;;;;;8.70;7.80;;;;;;;31.15;33.03;99906.66;5047056;28;20058;-70
2021/07/27 10:02:22;;;;;;;9.48;8.32;;;;;;;30.66;34.24;99904.34;5044044;28;20075;-70
2021/07/27 10:04:52;;;;;;;11.13;9.93;;;;;;;31.00;33.81;99906.41;5047423;28;20064;-70
2021/07/27 10:07:30;;;;;;;11.75;10.55;;;;;;;32.44;31.98;99904.19;5040620;28;20056;-70
2021/07/27 10:10:06;;;;;;;10.30;9.20;;;;;;;34.47;29.21;99899.81;5041853;28;20057;-70
2021/07/27 10:12:34;;;;;;;10.18;9.18;;;;;;;35.56;27.25;99897.09;5042006;28;20417;-70
2021/07/27 10:15:11;;;;;;;8.32;7.53;;;;;;;36.27;26.10;99896.34;5041560;28;20059;-68
2021/07/27 10:17:51;;;;;;;9.68;8.63;;;;;;;37.42;24.02;99904.41;5044752;28;20060;-70
2021/07/27 10:20:23;;;;;;;8.48;7.38;;;;;;;38.38;23.29;99900.03;5048540;28;20060;-71
2021/07/27 10:22:52;;;;;;;9.23;8.40;;;;;;;39.04;22.34;99897.09;5040260;28;20529;-71
2021/07/27 10:25:21;;;;;;;8.27;7.47;;;;;;;39.28;21.77;99899.47;5040036;28;20053;-71
2021/07/27 10:27:49;;;;;;;8.07;7.28;;;;;;;38.34;23.00;99905.28;5044494;28;20052;-71
2021/07/27 10:30:17;;;;;;;;;;;;;;;39.32;21.23;99907.97;5041438;28;20059;-71
2021/07/27 10:32:54;;;;;;;8.85;7.97;;;;;;;39.46;21.28;99900.28;5039483;28;20378;-70
2021/07/27 10:35:25;;;;;;;8.15;7.45;;;;;;;38.85;22.58;99907.59;5033322;28;20410;-71
2021/07/27 10:37:54;;;;;;;10.20;8.98;;;;;;;37.46;24.19;99907.88;5041834;28;20049;-71
2021/07/27 10:40:30;;;;;;;10.85;8.65;;;;;;;37.95;23.23;99902.19;5041897;28;20502;-70
2021/07/27 10:42:58;;;;;;;8.68;7.88;;;;;;;37.79;23.55;99894.94;5039161;28;20048;-70
2021/07/27 10:45:26;;;;;;;8.40;7.60;;;;;;;37.52;22.86;99900.00;5038546;28;20053;-70
2021/07/27 10:47:55;;;;;;;10.10;7.00;;;;;;;37.20;24.29;99902.13;5033424;28;20046;-70
2021/07/27 10:50:26;;;;;;;8.48;6.93;;;;;;;37.41;23.38;99905.75;5038851;28;20053;-70
2021/07/27 10:53:06;;;;;;;7.25;6.50;;;;;;;35.91;24.99;99905.03;5042934;28;20068;-71
2021/07/27 10:55:33;;;;;;;6.70;6.10;;;;;;;35.17;26.67;99905.97;5040473;28;20045;-71
2021/07/27 10:58:06;;;;;;;7.07;6.37;;;;;;;35.13;26.76;99893.75;5042691;28;20542;-70
2021/07/27 11:00:35;;;;;;;7.78;6.97;;;;;;;35.67;25.60;99899.41;5047290;28;20068;-70
2021/07/27 11:03:03;;;;;;;9.38;6.88;;;;;;;35.07;26.63;99901.53;5043245;28;20053;-70
2021/07/27 11:05:31;;;;;;;9.60;8.70;;;;;;;33.95;27.49;99897.91;5040192;28;20406;-70
2021/07/27 11:07:58;;;;;;;9.18;8.10;;;;;;;32.76;29.92;99894.13;5052141;28;20056;-70
2021/07/27 11:10:33;;;;;;;7.93;7.22;;;;;;;33.07;30.06;99890.22;5047609;28;20061;-70
2021/07/27 11:13:03;;;;;;;7.45;6.80;;;;;;;32.17;31.24;99896.31;5048614;28;20052;-70
2021/07/27 11:15:31;;;;;;;7.97;7.22;;;;;;;31.60;32.08;99895.84;5049937;28;21253;-70
2021/07/27 11:18:03;;;;;;;8.02;6.68;;;;;;;31.12;33.20;99884.56;5050158;28;20060;-70
2021/07/27 11:20:33;;;;;;;7.05;6.35;;;;;;;30.74;34.35;99876.94;5045402;28;20068;-70
2021/07/27 11:23:04;;;;;;;7.32;6.43;;;;;;;30.12;35.74;99881.22;5052910;28;20052;-70
2021/07/27 11:25:33;;;;;;;8.02;5.93;;;;;;;29.87;36.51;99882.06;5049964;28;20056;-70
2021/07/27 11:28:10;;;;;;;7.00;6.30;;;;;;;29.23;37.56;99884.13;5046380;28;20056;-70
2021/07/27 11:30:40;;;;;;;7.38;6.47;;;;;;;28.67;38.13;99880.44;5051766;28;20116;-70
2021/07/27 11:33:09;;;;;;;6.97;6.28;;;;;;;29.08;37.70;99884.56;5053011;28;20409;-70
2021/07/27 11:35:43;;;;;;;6.47;5.85;;;;;;;29.26;37.48;99894.72;5051555;28;20402;-70
2021/07/27 11:38:13;;;;;;;6.43;5.70;;;;;;;29.53;37.44;99886.44;5046836;28;20057;-70
2021/07/27 11:40:42;;;;;;;7.20;6.00;;;;;;;29.53;37.06;99883.56;5046931;28;20053;-70
2021/07/27 11:43:10;;;;;;;;;;;;;;;29.16;36.94;99887.22;5053245;28;20406;-70
2021/07/27 11:45:39;;;;;;;5.55;5.05;;;;;;;29.60;36.67;99882.53;5045913;28;19928;-70
2021/07/27 11:48:08;;;;;;;7.18;6.40;;;;;;;30.53;34.73;99872.78;5053065;28;20064;-70
2021/07/27 11:50:38;;;;;;;8.13;6.15;;;;;;;30.57;34.33;99861.16;5048896;28;20405;-70
2021/07/27 11:53:07;;;;;;;6.72;5.78;;;;;;;30.74;34.08;99860.50;5038410;28;20060;-70